sensor_id;sensor_type;location;lat;lon;timestamp;pressure;altitude;pressure_sealevel;temperature;humidity
78485;BME280;67773;50.806;8.776;2023-11-19T00:00:59;99326.22;;;5.85;100.00
78485;BME280;67773;50.806;8.776;2023-11-19T00:03:25;99333.91;;;5.91;100.00
78485;BME280;67773;50.806;8.776;2023-11-19T00:05:50;99321.91;;;5.83;100.00
78485;BME280;67773;50.806;8.776;2023-11-19T00:08:16;99315.31;;;5.96;100.00
78485;BME280;67773;50.806;8.776;2023-11-19T00:10:41;99316.31;;;5.92;100.00
78485;BME280;67773;50.806;8.776;2023-11-19T00:13:06;99306.53;;;5.95;100.00
78485;BME280;67773;50.806;8.776;2023-11-19T00:15:32;99305.69;;;5.95;100.00
78485;BME280;67773;50.806;8.776;2023-11-19T00:17:57;99305.69;;;5.95;100.00
78485;BME280;67773;50.806;8.776;2023-11-19T00:20:22;99299.44;;;5.97;100.00
78485;BME280;67773;50.806;8.776;2023-11-19T00:22:48;99295.03;;;5.98;100.00
78485;BME280;67773;50.806;8.776;2023-11-19T00:25:16;99296.94;;;5.94;100.00
78485;BME280;67773;50.806;8.776;2023-11-19T00:27:42;99283.69;;;5.96;100.00
78485;BME280;67773;50.806;8.776;2023-11-19T00:30:10;99279.34;;;5.95;100.00
78485;BME280;67773;50.806;8.776;2023-11-19T00:32:36;99273.09;;;5.97;100.00
78485;BME280;67773;50.806;8.776;2023-11-19T00:35:04;99265.00;;;6.02;100.00
78485;BME280;67773;50.806;8.776;2023-11-19T00:37:29;99281.44;;;6.08;100.00
78485;BME280;67773;50.806;8.776;2023-11-19T00:39:55;99260.50;;;6.05;100.00
78485;BME280;67773;50.806;8.776;2023-11-19T00:42:22;99233.38;;;6.02;100.00
78485;BME280;67773;50.806;8.776;2023-11-19T00:44:47;99241.13;;;6.06;100.00
78485;BME280;67773;50.806;8.776;2023-11-19T00:47:12;99236.34;;;6.16;100.00
78485;BME280;67773;50.806;8.776;2023-11-19T00:49:38;99243.81;;;6.05;100.00
78485;BME280;67773;50.806;8.776;2023-11-19T00:52:03;99244.91;;;5.99;100.00
78485;BME280;67773;50.806;8.776;2023-11-19T00:54:28;99243.91;;;6.02;100.00
78485;BME280;67773;50.806;8.776;2023-11-19T00:56:54;99231.50;;;6.05;100.00
78485;BME280;67773;50.806;8.776;2023-11-19T00:59:20;99235.91;;;6.05;100.00
78485;BME280;67773;50.806;8.776;2023-11-19T01:01:46;99230.47;;;6.10;100.00
78485;BME280;67773;50.806;8.776;2023-11-19T01:04:13;99226.66;;;6.17;100.00
78485;BME280;67773;50.806;8.776;2023-11-19T01:06:39;99232.00;;;6.15;100.00
78485;BME280;67773;50.806;8.776;2023-11-19T01:09:04;99234.31;;;6.23;100.00
78485;BME280;67773;50.806;8.776;2023-11-19T01:11:30;99230.78;;;6.44;100.00
78485;BME280;67773;50.806;8.776;2023-11-19T01:13:55;99239.41;;;6.27;100.00
78485;BME280;67773;50.806;8.776;2023-11-19T01:16:21;99218.63;;;6.20;100.00
78485;BME280;67773;50.806;8.776;2023-11-19T01:18:47;99219.47;;;6.20;100.00
78485;BME280;67773;50.806;8.776;2023-11-19T01:21:13;99204.47;;;6.22;100.00
78485;BME280;67773;50.806;8.776;2023-11-19T01:23:42;99205.16;;;6.27;100.00
78485;BME280;67773;50.806;8.776;2023-11-19T01:26:09;99198.19;;;6.25;100.00
78485;BME280;67773;50.806;8.776;2023-11-19T01:28:35;99196.50;;;6.24;100.00
78485;BME280;67773;50.806;8.776;2023-11-19T01:31:01;99197.81;;;6.34;100.00
78485;BME280;67773;50.806;8.776;2023-11-19T01:33:26;99200.66;;;6.29;100.00
78485;BME280;67773;50.806;8.776;2023-11-19T01:35:53;99199.09;;;6.25;100.00
78485;BME280;67773;50.806;8.776;2023-11-19T01:38:18;99192.44;;;6.37;100.00
78485;BME280;67773;50.806;8.776;2023-11-19T01:40:43;99196.34;;;6.49;100.00
78485;BME280;67773;50.806;8.776;2023-11-19T01:43:09;99192.97;;;6.45;100.00
78485;BME280;67773;50.806;8.776;2023-11-19T01:45:37;99180.97;;;6.38;100.00
78485;BME280;67773;50.806;8.776;2023-11-19T01:48:03;99187.91;;;6.41;100.00
78485;BME280;67773;50.806;8.776;2023-11-19T01:50:30;99181.09;;;6.35;100.00
78485;BME280;67773;50.806;8.776;2023-11-19T01:52:56;99183.34;;;6.44;100.00
78485;BME280;67773;50.806;8.776;2023-11-19T01:55:26;99181.63;;;6.43;100.00
78485;BME280;67773;50.806;8.776;2023-11-19T01:57:54;99167.59;;;6.43;100.00
78485;BME280;67773;50.806;8.776;2023-11-19T02:00:20;99173.63;;;6.46;100.00
78485;BME280;67773;50.806;8.776;2023-11-19T02:02:47;99162.41;;;6.41;100.00
78485;BME280;67773;50.806;8.776;2023-11-19T02:05:13;99157.19;;;6.60;100.00
78485;BME280;67773;50.806;8.776;2023-11-19T02:07:39;99135.34;;;6.56;100.00
78485;BME280;67773;50.806;8.776;2023-11-19T02:10:05;99124.09;;;6.53;100.00
78485;BME280;67773;50.806;8.776;2023-11-19T02:12:31;99104.00;;;6.50;100.00
78485;BME280;67773;50.806;8.776;2023-11-19T02:15:01;99106.09;;;6.62;100.00
78485;BME280;67773;50.806;8.776;2023-11-19T02:17:27;99128.19;;;6.80;100.00
78485;BME280;67773;50.806;8.776;2023-11-19T02:19:53;99123.31;;;6.71;100.00
78485;BME280;67773;50.806;8.776;2023-11-19T02:22:19;99120.84;;;6.66;100.00
78485;BME280;67773;50.806;8.776;2023-11-19T02:24:46;99123.38;;;6.70;100.00
78485;BME280;67773;50.806;8.776;2023-11-19T02:27:22;99126.13;;;6.66;100.00
78485;BME280;67773;50.806;8.776;2023-11-19T02:29:51;99107.84;;;6.82;100.00
78485;BME280;67773;50.806;8.776;2023-11-19T02:32:17;99121.59;;;6.70;100.00
78485;BME280;67773;50.806;8.776;2023-11-19T02:34:42;99125.28;;;6.66;100.00
78485;BME280;67773;50.806;8.776;2023-11-19T02:37:07;99119.88;;;6.69;100.00
78485;BME280;67773;50.806;8.776;2023-11-19T02:39:33;99113.75;;;6.69;100.00
78485;BME280;67773;50.806;8.776;2023-11-19T02:41:58;99116.69;;;6.81;100.00
78485;BME280;67773;50.806;8.776;2023-11-19T02:44:25;99114.91;;;6.82;100.00
78485;BME280;67773;50.806;8.776;2023-11-19T02:46:53;99106.06;;;6.83;100.00
78485;BME280;67773;50.806;8.776;2023-11-19T02:49:18;99092.81;;;6.84;100.00
78485;BME280;67773;50.806;8.776;2023-11-19T02:51:44;99082.34;;;6.83;100.00
78485;BME280;67773;50.806;8.776;2023-11-19T02:54:09;99095.75;;;6.97;100.00
78485;BME280;67773;50.806;8.776;2023-11-19T02:56:35;99108.00;;;6.98;100.00
78485;BME280;67773;50.806;8.776;2023-11-19T02:59:02;99097.59;;;6.95;100.00
78485;BME280;67773;50.806;8.776;2023-11-19T03:01:39;99111.00;;;6.90;100.00
78485;BME280;67773;50.806;8.776;2023-11-19T03:04:08;99098.75;;;6.89;100.00
78485;BME280;67773;50.806;8.776;2023-11-19T03:06:37;99105.06;;;6.85;100.00
78485;BME280;67773;50.806;8.776;2023-11-19T03:09:02;99106.28;;;6.97;100.00
78485;BME280;67773;50.806;8.776;2023-11-19T03:11:33;99093.25;;;6.94;100.00
78485;BME280;67773;50.806;8.776;2023-11-19T03:13:58;99074.63;;;6.97;100.00
78485;BME280;67773;50.806;8.776;2023-11-19T03:16:24;99077.16;;;7.00;100.00
78485;BME280;67773;50.806;8.776;2023-11-19T03:18:49;99075.06;;;7.07;100.00
78485;BME280;67773;50.806;8.776;2023-11-19T03:21:14;99077.16;;;7.00;100.00
78485;BME280;67773;50.806;8.776;2023-11-19T03:23:39;99078.94;;;7.00;100.00
78485;BME280;67773;50.806;8.776;2023-11-19T03:26:05;99080.56;;;7.02;100.00
78485;BME280;67773;50.806;8.776;2023-11-19T03:28:31;99088.25;;;7.07;100.00
78485;BME280;67773;50.806;8.776;2023-11-19T03:30:56;99081.16;;;7.09;100.00
78485;BME280;67773;50.806;8.776;2023-11-19T03:33:22;99061.69;;;7.11;100.00
78485;BME280;67773;50.806;8.776;2023-11-19T03:35:47;99068.00;;;7.07;100.00
78485;BME280;67773;50.806;8.776;2023-11-19T03:38:12;99068.81;;;7.09;100.00
78485;BME280;67773;50.806;8.776;2023-11-19T03:40:39;99061.38;;;7.17;100.00
78485;BME280;67773;50.806;8.776;2023-11-19T03:43:05;99057.69;;;7.21;100.00
78485;BME280;67773;50.806;8.776;2023-11-19T03:45:31;99064.66;;;7.22;100.00
78485;BME280;67773;50.806;8.776;2023-11-19T03:47:56;99053.34;;;7.20;100.00
78485;BME280;67773;50.806;8.776;2023-11-19T03:50:21;99066.09;;;7.30;100.00
78485;BME280;67773;50.806;8.776;2023-11-19T03:52:47;99067.81;;;7.31;100.00
78485;BME280;67773;50.806;8.776;2023-11-19T03:55:13;99058.97;;;7.32;100.00
78485;BME280;67773;50.806;8.776;2023-11-19T03:57:39;99056.94;;;7.37;100.00
78485;BME280;67773;50.806;8.776;2023-11-19T04:00:04;99056.09;;;7.36;100.00
78485;BME280;67773;50.806;8.776;2023-11-19T04:02:37;99061.94;;;7.43;100.00
78485;BME280;67773;50.806;8.776;2023-11-19T04:05:02;99067.00;;;7.47;100.00
78485;BME280;67773;50.806;8.776;2023-11-19T04:07:30;99067.06;;;7.46;100.00
78485;BME280;67773;50.806;8.776;2023-11-19T04:09:56;99057.94;;;7.53;100.00
78485;BME280;67773;50.806;8.776;2023-11-19T04:12:22;99048.84;;;7.59;100.00
78485;BME280;67773;50.806;8.776;2023-11-19T04:14:47;99051.28;;;7.63;100.00
78485;BME280;67773;50.806;8.776;2023-11-19T04:17:12;99044.72;;;7.70;100.00
78485;BME280;67773;50.806;8.776;2023-11-19T04:19:38;99037.13;;;7.64;100.00
78485;BME280;67773;50.806;8.776;2023-11-19T04:22:04;99030.75;;;7.68;100.00
78485;BME280;67773;50.806;8.776;2023-11-19T04:24:29;99031.69;;;7.67;100.00
78485;BME280;67773;50.806;8.776;2023-11-19T04:26:54;99026.97;;;7.74;100.00
78485;BME280;67773;50.806;8.776;2023-11-19T04:29:19;99028.69;;;7.75;100.00
78485;BME280;67773;50.806;8.776;2023-11-19T04:31:45;99023.88;;;7.83;100.00
78485;BME280;67773;50.806;8.776;2023-11-19T04:34:11;99030.38;;;7.76;100.00
78485;BME280;67773;50.806;8.776;2023-11-19T04:36:36;99029.53;;;7.75;100.00
78485;BME280;67773;50.806;8.776;2023-11-19T04:39:03;99030.22;;;7.79;100.00
78485;BME280;67773;50.806;8.776;2023-11-19T04:41:32;99036.44;;;7.78;100.00
78485;BME280;67773;50.806;8.776;2023-11-19T04:43:57;99035.66;;;7.76;100.00
78485;BME280;67773;50.806;8.776;2023-11-19T04:46:23;99039.72;;;7.83;100.00
78485;BME280;67773;50.806;8.776;2023-11-19T04:48:49;99029.75;;;7.88;100.00
78485;BME280;67773;50.806;8.776;2023-11-19T04:51:15;99032.66;;;7.84;100.00
78485;BME280;67773;50.806;8.776;2023-11-19T04:53:40;99034.66;;;7.96;100.00
78485;BME280;67773;50.806;8.776;2023-11-19T04:56:09;99043.38;;;7.98;100.00
78485;BME280;67773;50.806;8.776;2023-11-19T04:58:35;99037.22;;;7.97;100.00
78485;BME280;67773;50.806;8.776;2023-11-19T05:01:02;99036.28;;;7.98;100.00
78485;BME280;67773;50.806;8.776;2023-11-19T05:03:28;99030.56;;;8.07;100.00
78485;BME280;67773;50.806;8.776;2023-11-19T05:05:53;99033.19;;;8.07;100.00
78485;BME280;67773;50.806;8.776;2023-11-19T05:08:19;99026.81;;;8.11;100.00
78485;BME280;67773;50.806;8.776;2023-11-19T05:10:44;99011.56;;;8.17;100.00
78485;BME280;67773;50.806;8.776;2023-11-19T05:13:09;99030.16;;;8.15;100.00
78485;BME280;67773;50.806;8.776;2023-11-19T05:15:35;99022.06;;;8.18;100.00
78485;BME280;67773;50.806;8.776;2023-11-19T05:18:00;99015.47;;;8.09;100.00
78485;BME280;67773;50.806;8.776;2023-11-19T05:20:25;99015.16;;;8.16;100.00
78485;BME280;67773;50.806;8.776;2023-11-19T05:22:51;99017.41;;;8.23;100.00
78485;BME280;67773;50.806;8.776;2023-11-19T05:25:18;99021.13;;;8.19;100.00
78485;BME280;67773;50.806;8.776;2023-11-19T05:27:45;99020.19;;;8.20;100.00
78485;BME280;67773;50.806;8.776;2023-11-19T05:30:11;99004.03;;;8.26;100.00
78485;BME280;67773;50.806;8.776;2023-11-19T05:32:36;99008.47;;;8.26;100.00
78485;BME280;67773;50.806;8.776;2023-11-19T05:35:02;99008.47;;;8.26;100.00
78485;BME280;67773;50.806;8.776;2023-11-19T05:37:27;99011.25;;;8.23;100.00
78485;BME280;67773;50.806;8.776;2023-11-19T05:39:55;99013.88;;;8.23;100.00
78485;BME280;67773;50.806;8.776;2023-11-19T05:42:20;99015.19;;;8.31;100.00
78485;BME280;67773;50.806;8.776;2023-11-19T05:44:46;99020.75;;;8.27;100.00
78485;BME280;67773;50.806;8.776;2023-11-19T05:47:11;99016.81;;;8.35;100.00
78485;BME280;67773;50.806;8.776;2023-11-19T05:49:36;99009.28;;;8.44;100.00
78485;BME280;67773;50.806;8.776;2023-11-19T05:52:02;99003.25;;;8.42;100.00
78485;BME280;67773;50.806;8.776;2023-11-19T05:54:28;99011.50;;;8.35;100.00
78485;BME280;67773;50.806;8.776;2023-11-19T05:56:54;99008.88;;;8.35;100.00
78485;BME280;67773;50.806;8.776;2023-11-19T05:59:20;99017.75;;;8.34;100.00
78485;BME280;67773;50.806;8.776;2023-11-19T06:01:45;99033.44;;;8.37;100.00
78485;BME280;67773;50.806;8.776;2023-11-19T06:04:11;99026.28;;;8.39;100.00
78485;BME280;67773;50.806;8.776;2023-11-19T06:06:36;99036.38;;;8.49;100.00
78485;BME280;67773;50.806;8.776;2023-11-19T06:09:03;99028.69;;;8.44;100.00
78485;BME280;67773;50.806;8.776;2023-11-19T06:11:29;99035.53;;;8.48;100.00
78485;BME280;67773;50.806;8.776;2023-11-19T06:13:54;99038.38;;;8.44;100.00
78485;BME280;67773;50.806;8.776;2023-11-19T06:16:19;99046.94;;;8.49;100.00
78485;BME280;67773;50.806;8.776;2023-11-19T06:18:45;99045.94;;;8.51;100.00
78485;BME280;67773;50.806;8.776;2023-11-19T06:21:10;99034.88;;;8.43;100.00
78485;BME280;67773;50.806;8.776;2023-11-19T06:23:36;99039.31;;;8.43;100.00
78485;BME280;67773;50.806;8.776;2023-11-19T06:26:02;99033.09;;;8.44;100.00
78485;BME280;67773;50.806;8.776;2023-11-19T06:28:27;99038.47;;;8.42;100.00
78485;BME280;67773;50.806;8.776;2023-11-19T06:30:52;99042.91;;;8.42;100.00
78485;BME280;67773;50.806;8.776;2023-11-19T06:33:18;99046.56;;;8.39;100.00
78485;BME280;67773;50.806;8.776;2023-11-19T06:35:43;99048.59;;;8.34;100.00
78485;BME280;67773;50.806;8.776;2023-11-19T06:38:08;99057.41;;;8.33;100.00
78485;BME280;67773;50.806;8.776;2023-11-19T06:40:34;99065.34;;;8.33;100.00
78485;BME280;67773;50.806;8.776;2023-11-19T06:43:05;99079.75;;;8.27;100.00
78485;BME280;67773;50.806;8.776;2023-11-19T06:45:33;99057.84;;;8.25;100.00
78485;BME280;67773;50.806;8.776;2023-11-19T06:48:02;99070.91;;;8.28;100.00
78485;BME280;67773;50.806;8.776;2023-11-19T06:50:29;99056.47;;;8.35;100.00
78485;BME280;67773;50.806;8.776;2023-11-19T06:52:54;99053.94;;;8.32;100.00
78485;BME280;67773;50.806;8.776;2023-11-19T06:55:20;99056.00;;;8.45;100.00
78485;BME280;67773;50.806;8.776;2023-11-19T06:57:45;99048.88;;;8.28;100.00
78485;BME280;67773;50.806;8.776;2023-11-19T07:00:11;99055.19;;;8.08;100.00
78485;BME280;67773;50.806;8.776;2023-11-19T07:02:36;99053.72;;;8.20;100.00
78485;BME280;67773;50.806;8.776;2023-11-19T07:05:02;99057.66;;;8.11;100.00
78485;BME280;67773;50.806;8.776;2023-11-19T07:07:30;99055.88;;;8.11;100.00
78485;BME280;67773;50.806;8.776;2023-11-19T07:09:55;99067.47;;;8.26;100.00
78485;BME280;67773;50.806;8.776;2023-11-19T07:12:21;99067.31;;;8.29;100.00
78485;BME280;67773;50.806;8.776;2023-11-19T07:14:46;99071.41;;;8.36;100.00
78485;BME280;67773;50.806;8.776;2023-11-19T07:17:12;99081.13;;;8.36;100.00
78485;BME280;67773;50.806;8.776;2023-11-19T07:19:37;99077.38;;;8.40;100.00
78485;BME280;67773;50.806;8.776;2023-11-19T07:22:04;99078.13;;;8.42;100.00
78485;BME280;67773;50.806;8.776;2023-11-19T07:24:29;99085.69;;;8.50;100.00
78485;BME280;67773;50.806;8.776;2023-11-19T07:26:54;99090.59;;;8.57;100.00
78485;BME280;67773;50.806;8.776;2023-11-19T07:29:20;99073.31;;;8.67;100.00
78485;BME280;67773;50.806;8.776;2023-11-19T07:31:48;99074.47;;;8.62;100.00
78485;BME280;67773;50.806;8.776;2023-11-19T07:34:13;99078.81;;;8.63;100.00
78485;BME280;67773;50.806;8.776;2023-11-19T07:36:39;99079.03;;;8.76;100.00
78485;BME280;67773;50.806;8.776;2023-11-19T07:39:05;99070.75;;;8.66;100.00
78485;BME280;67773;50.806;8.776;2023-11-19T07:41:31;99073.31;;;8.67;100.00
78485;BME280;67773;50.806;8.776;2023-11-19T07:43:56;99077.47;;;8.72;100.00
78485;BME280;67773;50.806;8.776;2023-11-19T07:46:22;99068.84;;;8.68;100.00
78485;BME280;67773;50.806;8.776;2023-11-19T07:48:47;99058.09;;;8.71;100.00
78485;BME280;67773;50.806;8.776;2023-11-19T07:51:13;99056.22;;;8.73;100.00
78485;BME280;67773;50.806;8.776;2023-11-19T07:53:39;99065.09;;;8.72;100.00
78485;BME280;67773;50.806;8.776;2023-11-19T07:56:06;99064.03;;;8.76;100.00
78485;BME280;67773;50.806;8.776;2023-11-19T07:58:31;99061.88;;;8.83;100.00
78485;BME280;67773;50.806;8.776;2023-11-19T08:00:56;99066.31;;;8.82;100.00
78485;BME280;67773;50.806;8.776;2023-11-19T08:03:22;99069.91;;;8.81;100.00
78485;BME280;67773;50.806;8.776;2023-11-19T08:05:47;99069.09;;;8.96;100.00
78485;BME280;67773;50.806;8.776;2023-11-19T08:08:13;99064.41;;;9.02;100.00
78485;BME280;67773;50.806;8.776;2023-11-19T08:10:40;99066.88;;;9.05;100.00
78485;BME280;67773;50.806;8.776;2023-11-19T08:13:05;99079.78;;;9.11;100.00
78485;BME280;67773;50.806;8.776;2023-11-19T08:15:31;99080.38;;;9.16;100.00
78485;BME280;67773;50.806;8.776;2023-11-19T08:17:56;99083.66;;;9.21;100.00
78485;BME280;67773;50.806;8.776;2023-11-19T08:20:22;99088.75;;;9.24;99.98
78485;BME280;67773;50.806;8.776;2023-11-19T08:22:47;99090.59;;;9.39;99.63
78485;BME280;67773;50.806;8.776;2023-11-19T08:25:13;99094.44;;;9.49;99.77
78485;BME280;67773;50.806;8.776;2023-11-19T08:27:38;99090.13;;;9.47;99.69
78485;BME280;67773;50.806;8.776;2023-11-19T08:30:05;99103.31;;;9.64;99.10
78485;BME280;67773;50.806;8.776;2023-11-19T08:32:31;99084.66;;;9.66;98.73
78485;BME280;67773;50.806;8.776;2023-11-19T08:34:56;99087.41;;;9.64;98.23
78485;BME280;67773;50.806;8.776;2023-11-19T08:37:22;99087.59;;;9.61;98.74
78485;BME280;67773;50.806;8.776;2023-11-19T08:39:48;99079.03;;;9.56;98.69
78485;BME280;67773;50.806;8.776;2023-11-19T08:42:14;99093.66;;;9.63;98.80
78485;BME280;67773;50.806;8.776;2023-11-19T08:44:39;99106.19;;;9.91;97.57
78485;BME280;67773;50.806;8.776;2023-11-19T08:47:08;99114.72;;;9.96;96.01
78485;BME280;67773;50.806;8.776;2023-11-19T08:49:33;99120.22;;;9.93;96.22
78485;BME280;67773;50.806;8.776;2023-11-19T08:51:59;99113.19;;;9.92;95.34
78485;BME280;67773;50.806;8.776;2023-11-19T08:54:24;99110.59;;;10.06;95.93
78485;BME280;67773;50.806;8.776;2023-11-19T08:56:49;99106.00;;;10.40;94.74
78485;BME280;67773;50.806;8.776;2023-11-19T08:59:15;99105.56;;;10.48;92.89
78485;BME280;67773;50.806;8.776;2023-11-19T09:01:41;99102.28;;;10.73;91.74
78485;BME280;67773;50.806;8.776;2023-11-19T09:04:07;99099.44;;;10.90;89.76
78485;BME280;67773;50.806;8.776;2023-11-19T09:06:32;99097.00;;;10.87;89.66
78485;BME280;67773;50.806;8.776;2023-11-19T09:08:58;99098.03;;;10.84;89.27
78485;BME280;67773;50.806;8.776;2023-11-19T09:11:27;99090.53;;;10.77;89.96
78485;BME280;67773;50.806;8.776;2023-11-19T09:13:53;99092.88;;;10.53;89.24
78485;BME280;67773;50.806;8.776;2023-11-19T09:16:18;99113.06;;;10.55;88.01
78485;BME280;67773;50.806;8.776;2023-11-19T09:18:44;99094.28;;;10.44;86.70
78485;BME280;67773;50.806;8.776;2023-11-19T09:21:11;99105.75;;;10.45;85.92
78485;BME280;67773;50.806;8.776;2023-11-19T09:23:36;99102.72;;;10.51;84.36
78485;BME280;67773;50.806;8.776;2023-11-19T09:26:05;99118.94;;;10.60;83.92
78485;BME280;67773;50.806;8.776;2023-11-19T09:28:31;99114.38;;;10.48;84.62
78485;BME280;67773;50.806;8.776;2023-11-19T09:30:57;99119.97;;;10.44;82.75
78485;BME280;67773;50.806;8.776;2023-11-19T09:33:22;99122.72;;;10.42;82.21
78485;BME280;67773;50.806;8.776;2023-11-19T09:35:48;99133.00;;;10.32;84.75
78485;BME280;67773;50.806;8.776;2023-11-19T09:38:15;99140.47;;;10.26;84.27
78485;BME280;67773;50.806;8.776;2023-11-19T09:40:40;99139.69;;;10.24;83.47
78485;BME280;67773;50.806;8.776;2023-11-19T09:43:06;99141.75;;;10.03;85.44
78485;BME280;67773;50.806;8.776;2023-11-19T09:45:44;99144.66;;;9.98;87.60
78485;BME280;67773;50.806;8.776;2023-11-19T09:48:12;99155.94;;;9.86;88.03
78485;BME280;67773;50.806;8.776;2023-11-19T09:50:39;99144.59;;;9.84;89.73
78485;BME280;67773;50.806;8.776;2023-11-19T09:53:05;99148.28;;;9.81;89.10
78485;BME280;67773;50.806;8.776;2023-11-19T09:55:31;99148.03;;;9.70;89.57
78485;BME280;67773;50.806;8.776;2023-11-19T09:57:58;99136.31;;;9.90;90.18
78485;BME280;67773;50.806;8.776;2023-11-19T10:00:27;99142.91;;;10.29;86.63
78485;BME280;67773;50.806;8.776;2023-11-19T10:02:54;99137.00;;;11.12;84.70
78485;BME280;67773;50.806;8.776;2023-11-19T10:05:21;99140.63;;;11.25;81.92
78485;BME280;67773;50.806;8.776;2023-11-19T10:07:49;99138.91;;;11.24;83.58
78485;BME280;67773;50.806;8.776;2023-11-19T10:10:14;99136.19;;;12.08;81.70
78485;BME280;67773;50.806;8.776;2023-11-19T10:12:45;99136.41;;;12.32;78.33
78485;BME280;67773;50.806;8.776;2023-11-19T10:15:19;99137.00;;;12.63;77.98
78485;BME280;67773;50.806;8.776;2023-11-19T10:17:46;99150.25;;;13.03;78.04
78485;BME280;67773;50.806;8.776;2023-11-19T10:20:11;99142.81;;;13.20;74.20
78485;BME280;67773;50.806;8.776;2023-11-19T10:22:37;99133.53;;;13.13;73.45
78485;BME280;67773;50.806;8.776;2023-11-19T10:25:03;99124.66;;;13.88;72.84
78485;BME280;67773;50.806;8.776;2023-11-19T10:27:28;99129.47;;;14.30;70.95
78485;BME280;67773;50.806;8.776;2023-11-19T10:29:59;99121.56;;;13.57;72.16
78485;BME280;67773;50.806;8.776;2023-11-19T10:32:24;99125.13;;;13.69;71.08
78485;BME280;67773;50.806;8.776;2023-11-19T10:34:50;99123.28;;;12.94;72.54
78485;BME280;67773;50.806;8.776;2023-11-19T10:37:33;99114.91;;;12.35;74.68
78485;BME280;67773;50.806;8.776;2023-11-19T10:40:02;99113.44;;;12.57;75.17
78485;BME280;67773;50.806;8.776;2023-11-19T10:42:30;99119.00;;;12.54;74.05
78485;BME280;67773;50.806;8.776;2023-11-19T10:44:55;99112.38;;;12.47;73.97
78485;BME280;67773;50.806;8.776;2023-11-19T10:47:22;99117.88;;;12.31;73.12
78485;BME280;67773;50.806;8.776;2023-11-19T10:49:48;99119.81;;;12.02;74.11
78485;BME280;67773;50.806;8.776;2023-11-19T10:52:18;99112.69;;;12.02;75.17
78485;BME280;67773;50.806;8.776;2023-11-19T10:54:50;99114.31;;;12.57;74.48
78485;BME280;67773;50.806;8.776;2023-11-19T10:57:20;99098.31;;;12.32;70.83
78485;BME280;67773;50.806;8.776;2023-11-19T10:59:47;99099.44;;;11.88;74.05
78485;BME280;67773;50.806;8.776;2023-11-19T11:02:18;99093.22;;;12.67;70.49
78485;BME280;67773;50.806;8.776;2023-11-19T11:04:44;99089.19;;;13.25;66.43
78485;BME280;67773;50.806;8.776;2023-11-19T11:07:12;99086.66;;;13.23;67.80
78485;BME280;67773;50.806;8.776;2023-11-19T11:09:39;99089.06;;;14.00;64.79
78485;BME280;67773;50.806;8.776;2023-11-19T11:12:06;99086.38;;;14.24;64.08
78485;BME280;67773;50.806;8.776;2023-11-19T11:14:32;99076.63;;;14.11;65.00
78485;BME280;67773;50.806;8.776;2023-11-19T11:16:57;99080.66;;;13.93;65.99
78485;BME280;67773;50.806;8.776;2023-11-19T11:19:23;99079.47;;;13.37;65.37
78485;BME280;67773;50.806;8.776;2023-11-19T11:21:53;99086.19;;;13.17;66.16
78485;BME280;67773;50.806;8.776;2023-11-19T11:29:49;99095.03;;;12.54;68.65
78485;BME280;67773;50.806;8.776;2023-11-19T11:37:50;99088.03;;;13.04;66.41
78485;BME280;67773;50.806;8.776;2023-11-19T11:40:18;99101.09;;;12.56;68.04
78485;BME280;67773;50.806;8.776;2023-11-19T11:42:44;99091.63;;;12.77;66.58
78485;BME280;67773;50.806;8.776;2023-11-19T11:45:11;99102.81;;;12.69;67.83
78485;BME280;67773;50.806;8.776;2023-11-19T11:50:10;99086.44;;;12.63;65.14
78485;BME280;67773;50.806;8.776;2023-11-19T11:55:37;99086.19;;;12.66;67.34
78485;BME280;67773;50.806;8.776;2023-11-19T11:58:29;99083.44;;;13.06;66.03
78485;BME280;67773;50.806;8.776;2023-11-19T12:00:57;99098.66;;;12.91;64.96
78485;BME280;67773;50.806;8.776;2023-11-19T12:03:26;99091.75;;;12.76;64.58
78485;BME280;67773;50.806;8.776;2023-11-19T12:05:52;99090.03;;;12.62;64.37
78485;BME280;67773;50.806;8.776;2023-11-19T12:08:19;99080.53;;;12.58;65.92
78485;BME280;67773;50.806;8.776;2023-11-19T12:10:54;99083.13;;;12.72;66.38
78485;BME280;67773;50.806;8.776;2023-11-19T12:13:23;99074.91;;;12.75;65.37
78485;BME280;67773;50.806;8.776;2023-11-19T12:18:30;99070.94;;;12.30;65.72
78485;BME280;67773;50.806;8.776;2023-11-19T12:20:56;99064.16;;;12.64;64.84
78485;BME280;67773;50.806;8.776;2023-11-19T12:23:22;99044.13;;;12.84;63.43
78485;BME280;67773;50.806;8.776;2023-11-19T12:25:48;99049.53;;;13.08;62.39
78485;BME280;67773;50.806;8.776;2023-11-19T12:28:16;99050.72;;;13.04;63.11
78485;BME280;67773;50.806;8.776;2023-11-19T12:30:43;99051.47;;;12.93;62.54
78485;BME280;67773;50.806;8.776;2023-11-19T12:33:09;99053.81;;;12.85;63.16
78485;BME280;67773;50.806;8.776;2023-11-19T12:35:45;99042.88;;;12.64;63.81
78485;BME280;67773;50.806;8.776;2023-11-19T12:38:20;99041.38;;;12.73;63.36
78485;BME280;67773;50.806;8.776;2023-11-19T12:40:46;99046.59;;;12.74;63.94
78485;BME280;67773;50.806;8.776;2023-11-19T12:43:21;99041.78;;;12.79;62.65
78485;BME280;67773;50.806;8.776;2023-11-19T12:45:47;99040.16;;;13.15;61.75
78485;BME280;67773;50.806;8.776;2023-11-19T12:48:12;99026.72;;;13.16;60.90
78485;BME280;67773;50.806;8.776;2023-11-19T12:50:55;99025.22;;;13.12;61.56
78485;BME280;67773;50.806;8.776;2023-11-19T12:53:22;99033.31;;;13.11;62.37
78485;BME280;67773;50.806;8.776;2023-11-19T12:55:48;99034.19;;;13.24;62.79
78485;BME280;67773;50.806;8.776;2023-11-19T12:58:34;99026.66;;;12.92;62.72
78485;BME280;67773;50.806;8.776;2023-11-19T13:01:02;99023.69;;;12.71;62.49
78485;BME280;67773;50.806;8.776;2023-11-19T13:03:36;99028.78;;;12.36;63.33
78485;BME280;67773;50.806;8.776;2023-11-19T13:08:44;99029.41;;;12.14;64.13
78485;BME280;67773;50.806;8.776;2023-11-19T13:11:10;99042.19;;;12.22;64.58
78485;BME280;67773;50.806;8.776;2023-11-19T13:14:00;99038.44;;;12.12;66.27
78485;BME280;67773;50.806;8.776;2023-11-19T13:16:27;99055.53;;;12.08;65.09
78485;BME280;67773;50.806;8.776;2023-11-19T13:18:53;99066.25;;;11.94;66.78